Saint Augustine, FL

4:27 PM EDT on August 20, 2014 (GMT -0400)
MARITIME | Change Station
CLOSE
Current Station
Personal Weather Station
Location: Saint Augustine, FL
Elevation: 0 ft
Nearby Weather Stations
Active Advisory: Heat Advisory

Elev 0 ft 29.86 °N, 81.26 °W | Updated 27 minutes ago

Partly Cloudy
Partly Cloudy
91 °F
Feels Like 98 °F
N
7
Wind Variable Wind from NNW
Gusts 8.0 mph

Today
High -- | Low -- °F
--% Chance of Precip.
Yesterday
High -- | Low -- °F
Precip. -- in
6:55 AM 8:00 PM
Waning Crescent, 19% visible
Pressure 30.02 in
Visibility 10.0 miles
Clouds Few 4800 ft
Heat Index 98 °F
Dew Point 71 °F
Humidity 52%
Rainfall -999.00 in
Snow Depth Not available.
UV 9 out of 12
Pollen 7.90 out of 12
Ozone Good
PM2.5 Moderate
Flu Activity Not available.
METAR KSGJ 201958Z 30007KT 10SM FEW048 35/21 A3002 RMK AO2 SLP166 T03500206 $

More Conditions Fewer Conditions

Pressure 30.02 in
Visibility 10.0 miles
Clouds Few 4800 ft
Heat Index 98 °F
Dew Point 71 °F
Humidity 52%
Rainfall -999.00 in
Snow Depth Not available.
UV 9 out of 12
Pollen 7.90 out of 12
Ozone Good
PM2.5 Moderate
Flu Activity Not available.
METAR KSGJ 201958Z 30007KT 10SM FEW048 35/21 A3002 RMK AO2 SLP166 T03500206 $

More Conditions Fewer Conditions

10-Day Weather Forecast

Almanac

Astronomy

Aug. 20, 2014 Rise Set
Actual Time 6:55 AM EDT 8:00 PM EDT
Civil Twilight 6:30 AM EDT 8:25 PM EDT
Nautical Twilight 6:01 AM EDT 8:55 PM EDT
Astronomical Twilight 5:30 AM EDT 9:25 PM EDT
Moon 2:42 AM EDT 4:37 PM EDT
Length of Visible Light 13h 54m
Length of Day
13h 05m
Tomorrow will be 1m 37s shorter.
Waning Crescent, 19% of the Moon is Illuminated
Today
Waning Crescent
Aug 25
New
Sep 2
First Quarter
Sep 8
Full
Sep 15
Last Quarter

Community

WunderPhotos

Upload Photos

1,745,750 photos uploaded!

WunderBlogs® & News

By Dr. Jeff Masters
Director of Meteorology, Weather Underground
By Kari Strenfel
Meteorologist, Weather Underground
By Christopher C. Burt
Weather Historian, Weather Underground
August 20, 2014
August 20, 2014
August 20, 2014

Nearby

Air Quality

  Air Quality AQ Index Pollutant
Yesterday Good
PM2.5
Yesterday Good
OZONE
Current Moderate
PM2.5
Current Good
OZONE
Wednesday Good
OZONE
Wednesday Good
PM2.5
Thursday Moderate
OZONE
Thursday Moderate
PM2.5

Snow Depth

Station Depth Elevation
No new snow has been reported.

Earthquake Activity

City Distance Mag. Time & Date
No recent earthquake activity has been reported nearby.
Minimum magnitude displayed is 2.5.

Coastal Water Temperatures

Place Temperature
Mayport (Bar Pilots Dock), FL 86.0 °F
Fernandina Beach, FL 84.0 °F
Trident Pier, FL 82.0 °F

Nearby Weather Stations